Challenge Famenne Ardenne

Les crêtes de Saint-Monon à Nassogne (5.60 km)

samedi 30 juin 2018

Le classement original se trouve sur : https://sites.google.com/view/chronofirst/
CHALLENGE FAMENNE ARDENNE
LES CRÊTES DE SAINT-MONON - NASSOGNE
DISTANCE : 5.59 km
samedi 30 juin 2018
 
Place NOM Catég. pl/Cat. Temps Temps/km Vitesse
1 Grégory SERVAIS S 1 00:19:57 03:34 16.80
2 Edwin VANDERVORST S 2 00:21:16 03:48 15.76
3 Chris HENET V2 1 00:22:35 04:03 14.84
4 Arnaud HAULOT EH 1 00:23:22 04:11 14.34
5 Maxime DEWEZ EH 2 00:24:13 04:20 13.84
6 Joël DUCAT S 3 00:25:20 04:32 13.23
7 Thibaut PICKART S 4 00:26:43 04:47 12.54
8 Gilles DUTERME EH 3 00:27:13 04:52 12.31
9 Grégoire LEGRAND EH 4 00:27:27 04:55 12.21
10 Bertrand LEODET S 5 00:30:29 05:27 10.99
11 Julien LEODET S 6 00:30:46 05:30 10.89
12 Charline HEYMAN D 1 00:31:30 05:38 10.64
13 Sébastien HUET V1 1 00:32:15 05:46 10.39
14 Alain SECEMBER V1 2 00:32:15 05:46 10.39
15 Benjamin MATHOT S 7 00:34:16 06:08 9.78
16 Jean-François DALAIDENNE S 8 00:36:04 06:27 9.29
17 Maïté LENOIR D 2 00:36:17 06:30 9.24
18 Stéphanie DEJASSE A1 1 00:36:18 06:30 9.23
19 Isabelle REUL A2 1 00:37:03 06:38 9.05
20 Lise-Marie HARVENGT A1 2 00:37:17 06:40 8.99
21 Xavier AVALOSSE S 9 00:37:48 06:46 8.87
22 Audrey LIBOTTE D 3 00:38:01 06:48 8.82
23 Céline DAVID A1 3 00:38:32 06:54 8.70
24 Christel VANHOVE A2 2 00:39:12 07:01 8.55
25 Nicolas DELHALLE EH 5 00:39:40 07:06 8.45
26 Augustin TALLIEU EH 6 00:39:40 07:06 8.45
27 Delphine THEATE A1 4 00:40:21 07:13 8.31
28 Dominique SWAAB A2 3 00:40:34 07:16 8.26
29 Héloïse HEYMAN D 4 00:44:10 07:54 7.59
30 Stéphanie GENOT A1 5 00:44:46 08:01 7.49
31 Anne LALLEMAND A1 6 00:44:52 08:02 7.47
32 Noëlle LETOREY A1 7 00:46:13 08:16 7.25
33 Alexandre ARENS XXX   00:46:35 08:20 7.19
34 Jonathan ARENS S 10 00:46:38 08:21 7.19